sensor_id;sensor_type;location;lat;lon;timestamp;temperature;humidity
32147;DHT22;32190;49.112;8.598;2022-07-23T00:05:33;30.80;42.20
32147;DHT22;32190;49.112;8.598;2022-07-23T00:11:23;30.80;42.30
32147;DHT22;32190;49.112;8.598;2022-07-23T00:17:14;30.80;42.20
32147;DHT22;32190;49.112;8.598;2022-07-23T00:23:04;30.80;42.10
32147;DHT22;32190;49.112;8.598;2022-07-23T00:28:55;30.80;41.90
32147;DHT22;32190;49.112;8.598;2022-07-23T00:34:45;30.70;42.50
32147;DHT22;32190;49.112;8.598;2022-07-23T00:40:37;30.80;42.00
32147;DHT22;32190;49.112;8.598;2022-07-23T00:46:28;30.70;41.80
32147;DHT22;32190;49.112;8.598;2022-07-23T00:52:18;30.70;41.90
32147;DHT22;32190;49.112;8.598;2022-07-23T00:58:12;30.60;42.00
32147;DHT22;32190;49.112;8.598;2022-07-23T01:04:07;30.60;42.20
32147;DHT22;32190;49.112;8.598;2022-07-23T01:09:58;30.60;42.60
32147;DHT22;32190;49.112;8.598;2022-07-23T01:15:49;30.50;42.00
32147;DHT22;32190;49.112;8.598;2022-07-23T01:21:43;30.40;42.10
32147;DHT22;32190;49.112;8.598;2022-07-23T01:27:35;30.30;42.10
32147;DHT22;32190;49.112;8.598;2022-07-23T01:33:25;30.30;42.30
32147;DHT22;32190;49.112;8.598;2022-07-23T01:39:16;30.10;42.50
32147;DHT22;32190;49.112;8.598;2022-07-23T01:45:07;30.00;42.80
32147;DHT22;32190;49.112;8.598;2022-07-23T01:51:05;29.80;42.90
32147;DHT22;32190;49.112;8.598;2022-07-23T01:57:04;29.70;43.30
32147;DHT22;32190;49.112;8.598;2022-07-23T02:02:54;29.70;43.30
32147;DHT22;32190;49.112;8.598;2022-07-23T02:08:45;29.70;43.00
32147;DHT22;32190;49.112;8.598;2022-07-23T02:14:36;29.70;42.90
32147;DHT22;32190;49.112;8.598;2022-07-23T02:20:27;29.70;42.90
32147;DHT22;32190;49.112;8.598;2022-07-23T02:26:17;29.60;42.70
32147;DHT22;32190;49.112;8.598;2022-07-23T02:32:08;29.60;42.80
32147;DHT22;32190;49.112;8.598;2022-07-23T02:37:58;29.50;42.90
32147;DHT22;32190;49.112;8.598;2022-07-23T02:43:49;29.40;42.80
32147;DHT22;32190;49.112;8.598;2022-07-23T02:49:40;29.30;42.90
32147;DHT22;32190;49.112;8.598;2022-07-23T02:55:31;29.30;43.20
32147;DHT22;32190;49.112;8.598;2022-07-23T03:01:22;29.20;43.30
32147;DHT22;32190;49.112;8.598;2022-07-23T03:07:12;29.10;43.20
32147;DHT22;32190;49.112;8.598;2022-07-23T03:13:03;29.10;43.20
32147;DHT22;32190;49.112;8.598;2022-07-23T03:18:53;29.10;43.20
32147;DHT22;32190;49.112;8.598;2022-07-23T03:24:44;29.00;43.20
32147;DHT22;32190;49.112;8.598;2022-07-23T03:30:47;28.90;43.20
32147;DHT22;32190;49.112;8.598;2022-07-23T03:36:38;28.90;43.30
32147;DHT22;32190;49.112;8.598;2022-07-23T03:42:29;28.80;43.30
32147;DHT22;32190;49.112;8.598;2022-07-23T03:48:19;28.80;43.20
32147;DHT22;32190;49.112;8.598;2022-07-23T03:54:10;28.90;43.40
32147;DHT22;32190;49.112;8.598;2022-07-23T04:00:02;28.80;43.30
32147;DHT22;32190;49.112;8.598;2022-07-23T04:05:53;28.80;43.20
32147;DHT22;32190;49.112;8.598;2022-07-23T04:11:44;28.70;43.20
32147;DHT22;32190;49.112;8.598;2022-07-23T04:17:35;28.60;43.40
32147;DHT22;32190;49.112;8.598;2022-07-23T04:23:25;28.50;43.40
32147;DHT22;32190;49.112;8.598;2022-07-23T04:29:16;28.50;43.40
32147;DHT22;32190;49.112;8.598;2022-07-23T04:35:07;28.50;43.50
32147;DHT22;32190;49.112;8.598;2022-07-23T04:40:58;28.50;43.70
32147;DHT22;32190;49.112;8.598;2022-07-23T04:46:48;28.30;43.90
32147;DHT22;32190;49.112;8.598;2022-07-23T04:52:45;28.30;44.70
32147;DHT22;32190;49.112;8.598;2022-07-23T04:58:35;28.30;44.60
32147;DHT22;32190;49.112;8.598;2022-07-23T05:04:26;28.20;44.60
32147;DHT22;32190;49.112;8.598;2022-07-23T05:10:17;28.30;45.40
32147;DHT22;32190;49.112;8.598;2022-07-23T05:16:07;28.20;45.10
32147;DHT22;32190;49.112;8.598;2022-07-23T05:21:58;28.10;45.80
32147;DHT22;32190;49.112;8.598;2022-07-23T05:27:49;28.10;46.10
32147;DHT22;32190;49.112;8.598;2022-07-23T05:33:39;28.10;46.10
32147;DHT22;32190;49.112;8.598;2022-07-23T05:39:30;28.00;46.10
32147;DHT22;32190;49.112;8.598;2022-07-23T05:45:21;28.00;46.70
32147;DHT22;32190;49.112;8.598;2022-07-23T05:51:11;27.90;47.00
32147;DHT22;32190;49.112;8.598;2022-07-23T05:57:03;27.80;47.30
32147;DHT22;32190;49.112;8.598;2022-07-23T06:02:54;27.90;48.20
32147;DHT22;32190;49.112;8.598;2022-07-23T06:08:44;28.20;48.70
32147;DHT22;32190;49.112;8.598;2022-07-23T06:14:35;28.80;48.60
32147;DHT22;32190;49.112;8.598;2022-07-23T06:20:25;29.10;47.50
32147;DHT22;32190;49.112;8.598;2022-07-23T06:26:16;29.20;47.10
32147;DHT22;32190;49.112;8.598;2022-07-23T06:32:07;29.10;47.50
32147;DHT22;32190;49.112;8.598;2022-07-23T06:37:58;29.00;47.00
32147;DHT22;32190;49.112;8.598;2022-07-23T06:43:49;28.90;47.70
32147;DHT22;32190;49.112;8.598;2022-07-23T06:49:39;28.80;48.40
32147;DHT22;32190;49.112;8.598;2022-07-23T06:55:31;28.50;48.10
32147;DHT22;32190;49.112;8.598;2022-07-23T07:01:22;28.30;49.30
32147;DHT22;32190;49.112;8.598;2022-07-23T07:07:12;28.20;49.50
32147;DHT22;32190;49.112;8.598;2022-07-23T07:13:03;28.10;49.60
32147;DHT22;32190;49.112;8.598;2022-07-23T07:18:53;28.20;49.60
32147;DHT22;32190;49.112;8.598;2022-07-23T07:24:44;28.20;49.60
32147;DHT22;32190;49.112;8.598;2022-07-23T07:30:35;28.20;49.50
32147;DHT22;32190;49.112;8.598;2022-07-23T07:36:25;28.30;49.20
32147;DHT22;32190;49.112;8.598;2022-07-23T07:42:16;28.40;49.00
32147;DHT22;32190;49.112;8.598;2022-07-23T07:48:07;28.50;48.60
32147;DHT22;32190;49.112;8.598;2022-07-23T07:53:58;28.50;48.40
32147;DHT22;32190;49.112;8.598;2022-07-23T07:59:49;28.70;48.70
32147;DHT22;32190;49.112;8.598;2022-07-23T08:05:39;28.60;48.50
32147;DHT22;32190;49.112;8.598;2022-07-23T08:11:30;28.70;48.20
32147;DHT22;32190;49.112;8.598;2022-07-23T08:17:21;28.80;48.00
32147;DHT22;32190;49.112;8.598;2022-07-23T08:23:11;28.90;47.50
32147;DHT22;32190;49.112;8.598;2022-07-23T08:29:02;28.90;47.20
32147;DHT22;32190;49.112;8.598;2022-07-23T08:34:52;28.90;47.20
32147;DHT22;32190;49.112;8.598;2022-07-23T08:40:48;28.90;47.80
32147;DHT22;32190;49.112;8.598;2022-07-23T08:46:39;28.90;47.30
32147;DHT22;32190;49.112;8.598;2022-07-23T08:52:31;29.00;47.10
32147;DHT22;32190;49.112;8.598;2022-07-23T08:58:22;28.80;47.50
32147;DHT22;32190;49.112;8.598;2022-07-23T09:04:12;28.80;48.10
32147;DHT22;32190;49.112;8.598;2022-07-23T09:10:09;28.90;47.90
32147;DHT22;32190;49.112;8.598;2022-07-23T09:16:05;29.10;47.80
32147;DHT22;32190;49.112;8.598;2022-07-23T09:22:25;29.40;47.80
32147;DHT22;32190;49.112;8.598;2022-07-23T09:28:18;29.60;47.10
32147;DHT22;32190;49.112;8.598;2022-07-23T09:34:12;29.70;46.70
32147;DHT22;32190;49.112;8.598;2022-07-23T09:40:05;29.80;46.40
32147;DHT22;32190;49.112;8.598;2022-07-23T09:46:20;29.90;46.50
32147;DHT22;32190;49.112;8.598;2022-07-23T09:52:11;30.00;46.30
32147;DHT22;32190;49.112;8.598;2022-07-23T09:58:03;30.10;46.10
32147;DHT22;32190;49.112;8.598;2022-07-23T10:03:53;30.30;46.00
32147;DHT22;32190;49.112;8.598;2022-07-23T10:09:47;30.40;46.00
32147;DHT22;32190;49.112;8.598;2022-07-23T10:15:40;30.60;45.80
32147;DHT22;32190;49.112;8.598;2022-07-23T10:21:42;30.70;45.80
32147;DHT22;32190;49.112;8.598;2022-07-23T10:27:48;30.70;45.60
32147;DHT22;32190;49.112;8.598;2022-07-23T10:39:43;30.70;45.00
32147;DHT22;32190;49.112;8.598;2022-07-23T10:45:36;30.80;44.90
32147;DHT22;32190;49.112;8.598;2022-07-23T10:51:29;30.80;44.80
32147;DHT22;32190;49.112;8.598;2022-07-23T10:57:27;31.00;44.20
32147;DHT22;32190;49.112;8.598;2022-07-23T11:03:55;31.00;43.80
32147;DHT22;32190;49.112;8.598;2022-07-23T11:09:46;31.00;43.50
32147;DHT22;32190;49.112;8.598;2022-07-23T11:21:51;31.10;44.00
32147;DHT22;32190;49.112;8.598;2022-07-23T11:27:44;31.30;43.30
32147;DHT22;32190;49.112;8.598;2022-07-23T11:33:35;31.30;43.20
32147;DHT22;32190;49.112;8.598;2022-07-23T11:39:28;31.30;43.10
32147;DHT22;32190;49.112;8.598;2022-07-23T11:45:20;31.30;43.40
32147;DHT22;32190;49.112;8.598;2022-07-23T11:51:25;31.30;43.20
32147;DHT22;32190;49.112;8.598;2022-07-23T11:57:16;31.40;42.00
32147;DHT22;32190;49.112;8.598;2022-07-23T12:03:07;31.50;42.30
32147;DHT22;32190;49.112;8.598;2022-07-23T12:08:58;31.50;41.70
32147;DHT22;32190;49.112;8.598;2022-07-23T12:14:53;31.50;41.50
32147;DHT22;32190;49.112;8.598;2022-07-23T12:39:52;31.80;41.50
32147;DHT22;32190;49.112;8.598;2022-07-23T13:12:50;32.60;40.30
32147;DHT22;32190;49.112;8.598;2022-07-23T13:18:41;32.70;40.50
32147;DHT22;32190;49.112;8.598;2022-07-23T13:24:31;33.00;40.60
32147;DHT22;32190;49.112;8.598;2022-07-23T13:30:22;33.10;40.20
32147;DHT22;32190;49.112;8.598;2022-07-23T13:36:13;33.10;40.00
32147;DHT22;32190;49.112;8.598;2022-07-23T13:42:05;33.20;39.80
32147;DHT22;32190;49.112;8.598;2022-07-23T13:47:56;33.20;40.10
32147;DHT22;32190;49.112;8.598;2022-07-23T13:53:46;33.30;40.30
32147;DHT22;32190;49.112;8.598;2022-07-23T13:59:37;33.30;39.70
32147;DHT22;32190;49.112;8.598;2022-07-23T14:05:28;33.30;39.10
32147;DHT22;32190;49.112;8.598;2022-07-23T14:11:18;33.40;39.30
32147;DHT22;32190;49.112;8.598;2022-07-23T14:17:15;33.50;39.00
32147;DHT22;32190;49.112;8.598;2022-07-23T14:23:05;33.60;39.30
32147;DHT22;32190;49.112;8.598;2022-07-23T14:28:56;33.90;39.10
32147;DHT22;32190;49.112;8.598;2022-07-23T14:34:47;34.10;38.50
32147;DHT22;32190;49.112;8.598;2022-07-23T14:40:38;34.20;39.20
32147;DHT22;32190;49.112;8.598;2022-07-23T14:46:29;34.30;37.90
32147;DHT22;32190;49.112;8.598;2022-07-23T14:52:19;34.40;38.20
32147;DHT22;32190;49.112;8.598;2022-07-23T15:04:36;34.40;38.20
32147;DHT22;32190;49.112;8.598;2022-07-23T15:10:27;34.50;38.40
32147;DHT22;32190;49.112;8.598;2022-07-23T15:23:00;34.70;37.10
32147;DHT22;32190;49.112;8.598;2022-07-23T16:15:58;34.10;37.40
32147;DHT22;32190;49.112;8.598;2022-07-23T16:21:49;34.10;37.90
32147;DHT22;32190;49.112;8.598;2022-07-23T16:27:43;34.00;37.20
32147;DHT22;32190;49.112;8.598;2022-07-23T16:33:34;33.90;37.10
32147;DHT22;32190;49.112;8.598;2022-07-23T16:39:27;33.80;37.40
32147;DHT22;32190;49.112;8.598;2022-07-23T16:45:21;33.80;37.60
32147;DHT22;32190;49.112;8.598;2022-07-23T16:51:11;33.80;37.80
32147;DHT22;32190;49.112;8.598;2022-07-23T16:57:29;33.90;37.40
32147;DHT22;32190;49.112;8.598;2022-07-23T17:03:27;33.90;37.00
32147;DHT22;32190;49.112;8.598;2022-07-23T17:09:32;34.00;37.00
32147;DHT22;32190;49.112;8.598;2022-07-23T17:15:24;33.90;37.10
32147;DHT22;32190;49.112;8.598;2022-07-23T17:48:03;33.70;37.80
32147;DHT22;32190;49.112;8.598;2022-07-23T17:53:57;33.70;37.60
32147;DHT22;32190;49.112;8.598;2022-07-23T17:59:48;33.70;37.70
32147;DHT22;32190;49.112;8.598;2022-07-23T19:18:53;33.20;38.70
32147;DHT22;32190;49.112;8.598;2022-07-23T19:24:52;33.10;38.30
32147;DHT22;32190;49.112;8.598;2022-07-23T19:30:49;33.10;38.50
32147;DHT22;32190;49.112;8.598;2022-07-23T19:43:22;32.80;38.30
32147;DHT22;32190;49.112;8.598;2022-07-23T19:49:30;32.50;38.60
32147;DHT22;32190;49.112;8.598;2022-07-23T19:55:24;32.30;39.10
32147;DHT22;32190;49.112;8.598;2022-07-23T20:46:12;31.60;40.00
32147;DHT22;32190;49.112;8.598;2022-07-23T20:52:04;31.50;40.10
32147;DHT22;32190;49.112;8.598;2022-07-23T20:57:55;31.50;40.10
32147;DHT22;32190;49.112;8.598;2022-07-23T21:03:46;31.40;39.90
32147;DHT22;32190;49.112;8.598;2022-07-23T21:09:36;31.20;39.90
32147;DHT22;32190;49.112;8.598;2022-07-23T21:15:27;31.00;40.00
32147;DHT22;32190;49.112;8.598;2022-07-23T21:21:17;30.70;40.20
32147;DHT22;32190;49.112;8.598;2022-07-23T21:27:08;30.40;40.40
32147;DHT22;32190;49.112;8.598;2022-07-23T21:33:01;30.20;40.60
32147;DHT22;32190;49.112;8.598;2022-07-23T21:38:51;30.00;40.70
32147;DHT22;32190;49.112;8.598;2022-07-23T21:44:42;30.00;41.00
32147;DHT22;32190;49.112;8.598;2022-07-23T21:50:32;30.00;41.10
32147;DHT22;32190;49.112;8.598;2022-07-23T21:56:23;30.00;41.10
32147;DHT22;32190;49.112;8.598;2022-07-23T22:02:14;30.00;41.20
32147;DHT22;32190;49.112;8.598;2022-07-23T22:08:04;30.00;41.30
32147;DHT22;32190;49.112;8.598;2022-07-23T22:19:55;30.00;41.40
32147;DHT22;32190;49.112;8.598;2022-07-23T23:12:36;29.20;42.40
32147;DHT22;32190;49.112;8.598;2022-07-23T23:19:07;29.10;42.50
32147;DHT22;32190;49.112;8.598;2022-07-23T23:44:39;28.70;42.70
32147;DHT22;32190;49.112;8.598;2022-07-23T23:50:51;28.50;43.00
32147;DHT22;32190;49.112;8.598;2022-07-23T23:56:41;28.30;43.10
